createdAt,value
2019-05-20T00:02:24.379Z,9.90
2019-05-20T00:04:38.059Z,11.93
2019-05-20T00:07:04.846Z,11.37
2019-05-20T00:09:32.077Z,10.30
2019-05-20T00:11:58.772Z,9.47
2019-05-20T00:14:25.483Z,10.77
2019-05-20T00:16:52.205Z,9.70
2019-05-20T00:19:18.947Z,9.03
2019-05-20T00:21:45.655Z,11.67
2019-05-20T00:24:13.135Z,9.40
2019-05-20T00:26:39.923Z,11.57
2019-05-20T00:29:06.669Z,9.83
2019-05-20T00:31:33.370Z,9.43
2019-05-20T00:34:00.116Z,9.70
2019-05-20T00:36:26.868Z,10.03
2019-05-20T00:38:59.780Z,8.27
2019-05-20T00:41:26.495Z,8.33
2019-05-20T00:44:08.091Z,8.77
2019-05-20T00:46:34.823Z,9.30
2019-05-20T00:49:01.573Z,9.77
2019-05-20T00:51:28.254Z,7.43
2019-05-20T00:53:55.741Z,7.63
2019-05-20T00:56:22.437Z,7.97
2019-05-20T00:58:49.129Z,8.80
2019-05-20T01:01:15.880Z,8.40
2019-05-20T01:03:42.573Z,8.67
2019-05-20T01:06:10.013Z,8.53
2019-05-20T01:08:36.747Z,8.97
2019-05-20T01:11:04.369Z,9.00
2019-05-20T01:13:31.419Z,8.80
2019-05-20T01:15:58.139Z,9.20
2019-05-20T01:18:24.836Z,9.30
2019-05-20T01:20:51.592Z,8.50
2019-05-20T01:23:19.053Z,8.90
2019-05-20T01:25:46.507Z,9.47
2019-05-20T01:28:13.308Z,7.90
2019-05-20T01:30:40.431Z,8.23
2019-05-20T01:33:13.735Z,8.50
2019-05-20T01:38:45.833Z,9.07
2019-05-20T01:41:13.771Z,9.77
2019-05-20T01:43:40.541Z,8.57
2019-05-20T01:46:07.408Z,9.30
2019-05-20T01:48:34.137Z,9.10
2019-05-20T01:51:00.844Z,9.60
2019-05-20T01:53:27.556Z,9.87
2019-05-20T01:55:54.900Z,8.93
2019-05-20T01:58:22.338Z,8.97
2019-05-20T02:00:49.121Z,9.80
2019-05-20T02:03:30.265Z,8.90
2019-05-20T02:05:43.441Z,7.97
2019-05-20T02:08:10.191Z,8.30
2019-05-20T02:10:36.867Z,8.70
2019-05-20T02:13:03.631Z,9.57
2019-05-20T02:15:40.990Z,9.53
2019-05-20T02:18:07.764Z,9.90
2019-05-20T02:20:34.556Z,9.00
2019-05-20T02:23:07.365Z,9.80
2019-05-20T02:25:34.070Z,8.93
2019-05-20T02:28:00.771Z,8.30
2019-05-20T02:30:28.294Z,8.77
2019-05-20T02:32:55.053Z,8.67
2019-05-20T02:35:22.562Z,8.47
2019-05-20T02:37:49.272Z,8.70
2019-05-20T02:40:16.878Z,8.33
2019-05-20T02:42:44.498Z,8.43
2019-05-20T02:45:11.259Z,8.40
2019-05-20T02:47:37.985Z,8.50
2019-05-20T02:50:04.748Z,7.57
2019-05-20T02:52:31.482Z,7.40
2019-05-20T02:54:58.244Z,6.80
2019-05-20T02:57:24.917Z,6.20
2019-05-20T02:59:52.360Z,6.80
2019-05-20T03:02:19.090Z,6.60
2019-05-20T03:04:45.798Z,7.70
2019-05-20T03:07:12.503Z,6.30
2019-05-20T03:09:39.962Z,6.93
2019-05-20T03:12:07.458Z,6.57
2019-05-20T03:14:34.185Z,6.13
2019-05-20T03:17:00.956Z,6.43
2019-05-20T03:19:27.671Z,6.53
2019-05-20T03:21:54.387Z,6.33
2019-05-20T03:24:21.857Z,6.50
2019-05-20T03:26:48.622Z,6.10
2019-05-20T03:29:15.373Z,6.27
2019-05-20T03:31:43.036Z,6.23
2019-05-20T03:34:09.911Z,6.10
2019-05-20T03:36:37.438Z,5.80
2019-05-20T03:39:04.261Z,5.53
2019-05-20T03:41:31.123Z,5.20
2019-05-20T03:43:58.621Z,5.40
2019-05-20T03:46:25.366Z,5.00
2019-05-20T03:48:52.063Z,5.10
2019-05-20T03:51:18.804Z,4.97
2019-05-20T03:53:45.537Z,4.73
2019-05-20T03:56:12.270Z,4.50
2019-05-20T03:58:39.021Z,5.13
2019-05-20T04:01:05.761Z,4.23
2019-05-20T04:03:32.606Z,4.50
2019-05-20T04:05:59.315Z,4.10
2019-05-20T04:08:26.164Z,4.07
2019-05-20T04:10:52.883Z,4.17
2019-05-20T04:13:20.357Z,3.77
2019-05-20T04:15:47.105Z,4.13
2019-05-20T04:18:14.153Z,4.00
2019-05-20T04:20:40.961Z,3.60
2019-05-20T04:23:07.729Z,4.23
2019-05-20T04:25:34.676Z,3.80
2019-05-20T04:28:01.857Z,3.93
2019-05-20T04:30:28.596Z,3.90
2019-05-20T04:32:55.376Z,3.77
2019-05-20T04:35:23.555Z,3.83
2019-05-20T04:37:48.904Z,4.23
2019-05-20T04:40:15.666Z,3.93
2019-05-20T04:42:42.346Z,3.90
2019-05-20T04:45:09.224Z,4.60
2019-05-20T04:47:36.060Z,4.20
2019-05-20T04:50:04.522Z,4.10
2019-05-20T04:52:32.141Z,3.40
2019-05-20T04:54:59.635Z,4.47
2019-05-20T04:57:27.122Z,5.43
2019-05-20T04:59:53.913Z,4.17
2019-05-20T05:02:20.606Z,3.87
2019-05-20T05:04:47.318Z,4.17
2019-05-20T05:07:14.855Z,3.90
2019-05-20T05:09:41.555Z,4.10
2019-05-20T05:12:08.259Z,4.47
2019-05-20T05:14:35.793Z,4.10
2019-05-20T05:17:02.514Z,4.10
2019-05-20T05:19:29.326Z,3.97
2019-05-20T05:21:56.110Z,3.60
2019-05-20T05:24:22.974Z,3.73
2019-05-20T05:26:50.124Z,3.67
2019-05-20T05:29:16.891Z,3.70
2019-05-20T05:31:44.345Z,3.50
2019-05-20T05:34:11.184Z,3.67
2019-05-20T05:36:38.624Z,3.27
2019-05-20T05:39:06.277Z,5.93
2019-05-20T05:41:33.890Z,3.63
2019-05-20T05:44:00.594Z,3.50
2019-05-20T05:46:27.350Z,3.10
2019-05-20T05:48:54.101Z,4.00
2019-05-20T05:51:20.822Z,3.47
2019-05-20T05:53:47.635Z,2.80
2019-05-20T05:56:15.885Z,3.50
2019-05-20T05:58:42.635Z,2.85
2019-05-20T06:01:09.390Z,3.00
2019-05-20T06:03:36.076Z,3.20
2019-05-20T06:06:12.156Z,2.70
2019-05-20T06:08:29.709Z,3.10
2019-05-20T06:10:56.387Z,2.70
2019-05-20T06:13:23.851Z,2.65
2019-05-20T06:16:05.483Z,2.92
2019-05-20T06:18:32.225Z,2.85
2019-05-20T06:20:58.989Z,2.90
2019-05-20T06:23:25.686Z,3.03
2019-05-20T06:25:52.390Z,2.90
2019-05-20T06:28:19.891Z,2.55
2019-05-20T06:30:47.422Z,2.83
2019-05-20T06:33:14.202Z,2.55
2019-05-20T06:35:41.021Z,2.53
2019-05-20T06:41:03.789Z,2.70
2019-05-20T06:43:30.541Z,2.70
2019-05-20T06:45:57.279Z,2.40
2019-05-20T06:48:24.794Z,2.17
2019-05-20T06:50:52.281Z,2.72
2019-05-20T06:53:18.993Z,2.42
2019-05-20T06:55:46.466Z,4.35
2019-05-20T06:58:13.210Z,5.37
2019-05-20T07:00:40.756Z,2.80
2019-05-20T07:03:08.269Z,2.72
2019-05-20T07:05:35.023Z,2.35
2019-05-20T07:08:02.193Z,2.72
2019-05-20T07:10:29.717Z,2.35
2019-05-20T07:12:56.428Z,2.53
2019-05-20T07:15:23.185Z,2.75
2019-05-20T07:17:49.867Z,2.85
2019-05-20T07:20:17.415Z,2.87
2019-05-20T07:22:55.274Z,2.65
2019-05-20T07:25:11.059Z,2.58
2019-05-20T07:27:37.864Z,2.30
2019-05-20T07:30:04.655Z,5.35
2019-05-20T07:32:31.411Z,3.62
2019-05-20T07:34:58.116Z,2.47
2019-05-20T07:37:24.856Z,2.30
2019-05-20T07:39:51.986Z,2.42
2019-05-20T07:42:18.766Z,2.72
2019-05-20T07:45:00.471Z,2.17
2019-05-20T07:47:28.031Z,3.05
2019-05-20T07:49:55.577Z,2.50
2019-05-20T07:52:22.675Z,4.70
2019-05-20T07:54:50.175Z,3.60
2019-05-20T07:57:17.064Z,2.60
2019-05-20T07:59:43.947Z,2.58
2019-05-20T08:02:10.711Z,2.97
2019-05-20T08:04:37.679Z,3.10
2019-05-20T08:07:26.060Z,5.12
2019-05-20T08:09:32.387Z,4.53
2019-05-20T08:11:59.138Z,2.60
2019-05-20T08:14:26.641Z,2.25
2019-05-20T08:16:53.451Z,2.25
2019-05-20T08:19:20.922Z,2.42
2019-05-20T08:21:48.457Z,2.20
2019-05-20T08:24:15.199Z,3.17
2019-05-20T08:26:41.920Z,3.47
2019-05-20T08:29:08.656Z,2.50
2019-05-20T08:31:35.376Z,2.85
2019-05-20T08:34:02.121Z,3.72
2019-05-20T08:36:28.829Z,2.62
2019-05-20T08:38:55.544Z,2.35
2019-05-20T08:41:22.361Z,2.53
2019-05-20T08:43:49.031Z,2.47
2019-05-20T08:46:15.766Z,2.67
2019-05-20T08:48:42.550Z,2.58
2019-05-20T08:51:09.322Z,3.70
2019-05-20T08:53:36.021Z,2.30
2019-05-20T08:56:02.818Z,2.47
2019-05-20T08:58:29.521Z,2.67
2019-05-20T09:00:56.247Z,3.53
2019-05-20T09:03:23.682Z,2.25
2019-05-20T09:05:51.177Z,3.62
2019-05-20T09:08:17.918Z,3.20
2019-05-20T09:10:44.600Z,3.37
2019-05-20T09:13:11.422Z,2.45
2019-05-20T09:15:38.117Z,2.87
2019-05-20T09:18:05.589Z,4.50
2019-05-20T09:20:32.304Z,4.20
2019-05-20T09:23:02.637Z,2.37
2019-05-20T09:25:27.632Z,2.25
2019-05-20T09:27:55.090Z,2.30
2019-05-20T09:30:22.902Z,2.83
2019-05-20T09:32:49.598Z,2.35
2019-05-20T09:35:17.127Z,5.10
2019-05-20T09:37:43.855Z,3.55
2019-05-20T09:40:10.777Z,2.90
2019-05-20T09:42:40.639Z,2.50
2019-05-20T09:45:04.778Z,2.72
2019-05-20T09:47:31.537Z,2.62
2019-05-20T09:49:58.587Z,2.53
2019-05-20T09:52:25.419Z,2.78
2019-05-20T09:54:52.323Z,2.60
2019-05-20T09:57:19.100Z,2.78
2019-05-20T09:59:45.779Z,2.33
2019-05-20T10:02:13.274Z,2.65
2019-05-20T10:04:40.285Z,2.60
2019-05-20T10:07:07.123Z,2.72
2019-05-20T10:09:33.906Z,2.80
2019-05-20T10:12:00.619Z,3.30
2019-05-20T10:14:28.154Z,2.60
2019-05-20T10:16:55.626Z,2.58
2019-05-20T10:19:23.242Z,3.12
2019-05-20T10:21:50.073Z,2.55
2019-05-20T10:24:16.792Z,4.32
2019-05-20T10:26:43.547Z,2.92
2019-05-20T10:29:10.275Z,3.00
2019-05-20T10:31:37.044Z,2.78
2019-05-20T10:34:04.586Z,2.47
2019-05-20T10:36:31.368Z,3.05
2019-05-20T10:38:59.522Z,4.55
2019-05-20T10:41:25.018Z,5.75
2019-05-20T10:43:51.714Z,2.80
2019-05-20T10:46:18.573Z,3.20
2019-05-20T10:48:45.682Z,5.07
2019-05-20T10:51:12.519Z,4.65
2019-05-20T10:53:39.273Z,3.00
2019-05-20T10:56:06.047Z,2.65
2019-05-20T10:58:32.965Z,2.75
2019-05-20T11:01:03.056Z,3.28
2019-05-20T11:03:27.295Z,2.83
2019-05-20T11:05:54.726Z,2.55
2019-05-20T11:08:21.478Z,4.12
2019-05-20T11:10:48.249Z,4.18
2019-05-20T11:13:14.945Z,2.85
2019-05-20T11:15:41.720Z,3.22
2019-05-20T11:18:08.988Z,3.08
2019-05-20T11:20:36.013Z,3.80
2019-05-20T11:23:03.545Z,4.12
2019-05-20T11:25:31.027Z,2.65
2019-05-20T11:27:58.894Z,2.78
2019-05-20T11:30:25.694Z,5.05
2019-05-20T11:32:52.389Z,2.87
2019-05-20T11:35:19.184Z,5.07
2019-05-20T11:37:46.012Z,2.92
2019-05-20T11:40:13.529Z,3.00
2019-05-20T11:42:39.793Z,3.37
2019-05-20T11:45:06.604Z,3.00
2019-05-20T11:47:33.371Z,3.37
2019-05-20T11:50:00.159Z,3.00
2019-05-20T11:52:26.977Z,2.70
2019-05-20T11:54:53.682Z,2.92
2019-05-20T11:57:21.012Z,3.15
2019-05-20T11:59:48.514Z,6.03
2019-05-20T12:02:16.718Z,3.37
2019-05-20T12:04:43.442Z,2.97
2019-05-20T12:07:10.474Z,3.55
2019-05-20T12:09:49.193Z,3.00
2019-05-20T12:12:04.065Z,4.15
2019-05-20T12:14:30.753Z,2.70
2019-05-20T12:16:58.976Z,3.35
2019-05-20T12:19:25.744Z,3.00
2019-05-20T12:21:53.324Z,2.92
2019-05-20T12:24:20.117Z,7.53
2019-05-20T12:26:46.916Z,5.18
2019-05-20T12:29:14.750Z,3.78
2019-05-20T12:31:41.705Z,2.83
2019-05-20T12:34:08.812Z,3.10
2019-05-20T12:36:35.530Z,3.58
2019-05-20T12:39:02.369Z,5.62
2019-05-20T12:41:29.289Z,3.15
2019-05-20T12:44:10.901Z,3.05
2019-05-20T12:46:22.807Z,7.68
2019-05-20T12:48:49.654Z,3.12
2019-05-20T12:51:16.434Z,3.58
2019-05-20T12:53:43.205Z,3.35
2019-05-20T12:56:10.069Z,3.40
2019-05-20T12:58:36.786Z,3.22
2019-05-20T13:01:03.597Z,3.15
2019-05-20T13:03:30.481Z,4.80
2019-05-20T13:05:57.375Z,3.20
2019-05-20T13:08:24.114Z,3.50
2019-05-20T13:10:50.887Z,5.57
2019-05-20T13:13:18.008Z,3.33
2019-05-20T13:15:44.925Z,3.17
2019-05-20T13:18:11.635Z,5.10
2019-05-20T13:20:38.418Z,4.10
2019-05-20T13:23:07.571Z,3.30
2019-05-20T13:25:32.105Z,3.35
2019-05-20T13:27:58.903Z,3.30
2019-05-20T13:30:25.714Z,3.40
2019-05-20T13:32:53.951Z,3.47
2019-05-20T13:35:20.753Z,3.62
2019-05-20T13:37:47.473Z,3.33
2019-05-20T13:40:14.297Z,3.37
2019-05-20T13:42:41.045Z,3.53
2019-05-20T13:45:08.639Z,3.75
2019-05-20T13:47:35.466Z,3.53
2019-05-20T13:50:02.208Z,3.45
2019-05-20T13:52:28.909Z,3.75
2019-05-20T13:54:55.663Z,3.72
2019-05-20T13:57:23.116Z,3.28
2019-05-20T13:59:49.918Z,3.35
2019-05-20T14:02:17.349Z,3.50
2019-05-20T14:04:44.083Z,3.42
2019-05-20T14:07:10.818Z,5.82
2019-05-20T14:09:37.688Z,3.37
2019-05-20T14:12:04.408Z,3.60
2019-05-20T14:14:31.398Z,3.72
2019-05-20T14:16:58.841Z,3.70
2019-05-20T14:19:26.365Z,3.97
2019-05-20T14:21:53.114Z,4.95
2019-05-20T14:24:19.842Z,3.47
2019-05-20T14:26:47.278Z,4.00
2019-05-20T14:29:14.020Z,3.53
2019-05-20T14:31:40.801Z,3.75
2019-05-20T14:34:07.538Z,3.97
2019-05-20T14:36:40.053Z,5.45
2019-05-20T14:39:01.128Z,4.18
2019-05-20T14:41:28.107Z,3.55
2019-05-20T14:43:54.869Z,3.75
2019-05-20T14:46:21.618Z,4.18
2019-05-20T14:48:48.395Z,3.55
2019-05-20T14:51:15.965Z,3.65
2019-05-20T14:53:43.487Z,6.03
2019-05-20T14:56:11.134Z,3.55
2019-05-20T14:58:37.871Z,4.53
2019-05-20T15:01:04.571Z,4.57
2019-05-20T15:03:31.258Z,3.40
2019-05-20T15:05:58.188Z,3.58
2019-05-20T15:08:24.903Z,3.50
2019-05-20T15:10:52.401Z,3.28
2019-05-20T15:13:19.091Z,7.05
2019-05-20T15:15:48.563Z,3.33
2019-05-20T15:18:13.370Z,6.85
2019-05-20T15:20:40.101Z,3.47
2019-05-20T15:23:06.853Z,3.28
2019-05-20T15:25:33.766Z,3.28
2019-05-20T15:28:00.549Z,3.33
2019-05-20T15:30:27.270Z,4.43
2019-05-20T15:32:54.894Z,3.72
2019-05-20T15:35:21.041Z,4.03
2019-05-20T15:37:47.718Z,3.90
2019-05-20T15:40:14.448Z,3.15
2019-05-20T15:42:41.251Z,3.72
2019-05-20T15:45:08.656Z,3.58
2019-05-20T15:47:35.383Z,3.70
2019-05-20T15:50:03.837Z,3.87
2019-05-20T15:52:29.140Z,3.65
2019-05-20T15:54:55.880Z,4.93
2019-05-20T15:57:23.825Z,3.53
2019-05-20T15:59:50.593Z,3.42
2019-05-20T16:02:17.307Z,4.75
2019-05-20T16:04:43.998Z,3.72
2019-05-20T16:07:10.771Z,3.25
2019-05-20T16:09:37.651Z,4.28
2019-05-20T16:12:04.414Z,3.75
2019-05-20T16:14:31.917Z,3.70
2019-05-20T16:16:59.386Z,3.00
2019-05-20T16:19:26.104Z,4.72
2019-05-20T16:21:53.648Z,3.87
2019-05-20T16:24:21.225Z,3.47
2019-05-20T16:26:48.716Z,5.30
2019-05-20T16:29:15.489Z,3.87
2019-05-20T16:31:42.222Z,3.65
2019-05-20T16:34:08.929Z,3.70
2019-05-20T16:36:35.720Z,3.30
2019-05-20T16:39:03.654Z,5.87
2019-05-20T16:41:30.658Z,3.87
2019-05-20T16:43:57.485Z,3.97
2019-05-20T16:46:24.261Z,5.53
2019-05-20T16:48:51.061Z,4.03
2019-05-20T16:51:17.841Z,4.12
2019-05-20T16:53:44.602Z,3.65
2019-05-20T16:56:11.349Z,3.65
2019-05-20T16:58:38.131Z,4.37
2019-05-20T17:01:07.081Z,4.00
2019-05-20T17:03:33.983Z,3.72
2019-05-20T17:06:00.717Z,3.85
2019-05-20T17:08:27.554Z,5.50
2019-05-20T17:10:54.305Z,4.87
2019-05-20T17:13:21.833Z,3.60
2019-05-20T17:15:48.529Z,4.18
2019-05-20T17:18:16.000Z,6.78
2019-05-20T17:20:45.927Z,4.68
2019-05-20T17:23:09.914Z,3.83
2019-05-20T17:25:36.861Z,4.07
2019-05-20T17:28:03.658Z,3.40
2019-05-20T17:30:44.283Z,3.42
2019-05-20T17:32:58.028Z,4.00
2019-05-20T17:35:24.739Z,3.90
2019-05-20T17:37:54.908Z,7.43
2019-05-20T17:40:18.678Z,4.10
2019-05-20T17:42:45.418Z,5.25
2019-05-20T17:45:12.391Z,3.85
2019-05-20T17:47:39.619Z,4.10
2019-05-20T17:50:07.521Z,3.78
2019-05-20T17:52:35.347Z,3.80
2019-05-20T17:55:03.032Z,4.10
2019-05-20T17:57:30.501Z,4.20
2019-05-20T17:59:57.554Z,3.80
2019-05-20T18:02:24.272Z,5.12
2019-05-20T18:04:51.747Z,4.28
2019-05-20T18:07:19.263Z,3.53
2019-05-20T18:09:46.806Z,5.45
2019-05-20T18:12:14.298Z,3.90
2019-05-20T18:14:41.805Z,4.62
2019-05-20T18:17:23.491Z,3.95
2019-05-20T18:19:50.250Z,4.80
2019-05-20T18:22:17.072Z,4.50
2019-05-20T18:24:43.861Z,4.30
2019-05-20T18:27:10.680Z,3.80
2019-05-20T18:29:37.436Z,4.60
2019-05-20T18:32:04.190Z,8.55
2019-05-20T18:34:31.662Z,4.00
2019-05-20T18:36:59.188Z,4.45
2019-05-20T18:39:25.939Z,4.15
2019-05-20T18:41:52.661Z,4.00
2019-05-20T18:44:19.730Z,5.78
2019-05-20T18:46:47.204Z,5.30
2019-05-20T18:49:14.704Z,4.53
2019-05-20T18:51:41.475Z,4.57
2019-05-20T18:54:08.550Z,4.10
2019-05-20T18:56:36.087Z,4.43
2019-05-20T18:59:03.556Z,4.47
2019-05-20T19:01:30.413Z,4.67
2019-05-20T19:03:57.964Z,4.60
2019-05-20T19:06:24.719Z,4.60
2019-05-20T19:08:52.197Z,4.57
2019-05-20T19:11:18.992Z,4.27
2019-05-20T19:13:45.665Z,4.87
2019-05-20T19:16:12.436Z,4.70
2019-05-20T19:18:39.215Z,5.70
2019-05-20T19:21:06.439Z,4.50
2019-05-20T19:23:33.177Z,4.40
2019-05-20T19:25:59.909Z,4.67
2019-05-20T19:28:26.657Z,4.57
2019-05-20T19:30:53.436Z,4.73
2019-05-20T19:33:20.170Z,4.93
2019-05-20T19:35:46.950Z,4.87
2019-05-20T19:38:14.351Z,5.93
2019-05-20T19:40:41.099Z,5.27
2019-05-20T19:43:07.840Z,4.83
2019-05-20T19:45:34.655Z,5.07
2019-05-20T19:48:01.379Z,5.50
2019-05-20T19:50:28.103Z,5.20
2019-05-20T19:52:55.662Z,5.00
2019-05-20T19:55:22.439Z,5.13
2019-05-20T19:57:49.131Z,5.43
2019-05-20T20:00:16.730Z,4.60
2019-05-20T20:02:43.481Z,5.17
2019-05-20T20:05:10.234Z,5.80
2019-05-20T20:07:37.104Z,6.53
2019-05-20T20:10:03.868Z,6.37
2019-05-20T20:12:30.553Z,6.20
2019-05-20T20:14:57.265Z,6.47
2019-05-20T20:17:24.035Z,8.30
2019-05-20T20:19:51.048Z,5.53
2019-05-20T20:22:18.255Z,6.27
2019-05-20T20:24:45.005Z,6.70
2019-05-20T20:27:11.725Z,6.73
2019-05-20T20:29:39.380Z,5.87
2019-05-20T20:32:06.100Z,6.40
2019-05-20T20:34:32.850Z,5.97
2019-05-20T20:37:00.126Z,5.97
2019-05-20T20:39:26.980Z,6.10
2019-05-20T20:41:53.763Z,6.60
2019-05-20T20:44:22.576Z,6.30
2019-05-20T20:46:49.534Z,6.03
2019-05-20T20:49:16.322Z,6.70
2019-05-20T20:51:44.339Z,6.10
2019-05-20T20:54:11.169Z,6.40
2019-05-20T20:56:38.023Z,6.20
2019-05-20T20:59:05.053Z,5.20
2019-05-20T21:01:31.714Z,6.67
2019-05-20T21:03:59.291Z,7.03
2019-05-20T21:06:26.051Z,7.20
2019-05-20T21:08:52.745Z,6.60
2019-05-20T21:11:21.093Z,6.20
2019-05-20T21:13:47.921Z,5.97
2019-05-20T21:16:15.363Z,6.70
2019-05-20T21:18:42.137Z,6.70
2019-05-20T21:21:08.957Z,7.47
2019-05-20T21:23:38.025Z,5.93
2019-05-20T21:26:02.490Z,6.20
2019-05-20T21:28:29.463Z,5.83
2019-05-20T21:30:57.633Z,6.83
2019-05-20T21:33:24.434Z,6.87
2019-05-20T21:35:51.278Z,6.80
2019-05-20T21:38:18.845Z,8.07
2019-05-20T21:40:46.719Z,7.23
2019-05-20T21:43:13.651Z,7.47
2019-05-20T21:45:40.390Z,6.57
2019-05-20T21:48:07.148Z,7.20
2019-05-20T21:50:33.897Z,7.30
2019-05-20T21:53:00.595Z,6.87
2019-05-20T21:55:28.058Z,7.37
2019-05-20T21:57:54.776Z,6.90
2019-05-20T22:00:21.612Z,7.40
2019-05-20T22:02:48.441Z,7.10
2019-05-20T22:05:15.486Z,7.00
2019-05-20T22:07:42.214Z,7.40
2019-05-20T22:10:09.028Z,7.30
2019-05-20T22:12:35.737Z,6.57
2019-05-20T22:15:02.569Z,6.60
2019-05-20T22:17:29.306Z,6.57
2019-05-20T22:19:55.992Z,6.30
2019-05-20T22:22:24.224Z,6.23
2019-05-20T22:24:51.048Z,7.40
2019-05-20T22:27:17.997Z,7.27
2019-05-20T22:29:44.719Z,6.83
2019-05-20T22:32:11.448Z,6.40
2019-05-20T22:34:38.180Z,6.87
2019-05-20T22:37:05.387Z,6.50
2019-05-20T22:39:32.829Z,6.50
2019-05-20T22:41:59.607Z,6.77
2019-05-20T22:44:26.478Z,7.13
2019-05-20T22:46:53.238Z,6.37
2019-05-20T22:49:20.810Z,7.10
2019-05-20T22:51:48.454Z,7.10
2019-05-20T22:54:15.491Z,8.00
2019-05-20T22:56:42.863Z,7.97
2019-05-20T22:59:10.028Z,6.77
2019-05-20T23:01:37.150Z,7.33
2019-05-20T23:04:04.288Z,7.33
2019-05-20T23:06:31.269Z,8.70
2019-05-20T23:08:58.722Z,6.83
2019-05-20T23:11:25.467Z,6.73
2019-05-20T23:13:52.522Z,7.50
2019-05-20T23:16:19.212Z,6.90
2019-05-20T23:18:45.982Z,7.73
2019-05-20T23:21:12.687Z,6.90
2019-05-20T23:23:39.441Z,7.23
2019-05-20T23:26:06.163Z,6.70
2019-05-20T23:28:33.638Z,7.50
2019-05-20T23:31:00.396Z,7.40
2019-05-20T23:33:27.088Z,7.80
2019-05-20T23:35:54.556Z,7.53
2019-05-20T23:38:21.297Z,7.33
2019-05-20T23:40:48.825Z,6.90
2019-05-20T23:43:16.010Z,7.30
2019-05-20T23:45:43.487Z,7.57
2019-05-20T23:48:10.188Z,7.60
2019-05-20T23:50:36.966Z,7.80
2019-05-20T23:53:03.670Z,8.13
2019-05-20T23:55:30.468Z,7.27
2019-05-20T23:57:57.413Z,7.47
